Time;durP1;ratioP1;P1;durP2;ratioP2;P2;SDS_P1;SDS_P2;PMS_P1;PMS_P2;Temp;Humidity;BMP_temperature;BMP_pressure;BME280_temperature;BME280_humidity;BME280_pressure;Samples;Min_cycle;Max_cycle;Signal;HPM_P1;HPM_P2
2022/07/30 00:01:59;;;;;;;6.63;4.57;;;16.00;99.90;;;;;;5010679;28;20041;-63
2022/07/30 00:04:25;;;;;;;5.57;4.18;;;16.00;99.90;;;;;;5010967;28;20496;-68
2022/07/30 00:06:51;;;;;;;7.38;4.45;;;16.00;99.90;;;;;;5006115;28;20085;-65
2022/07/30 00:09:17;;;;;;;7.20;4.75;;;15.90;99.90;;;;;;5008895;28;20031;-66
2022/07/30 00:11:42;;;;;;;5.93;4.00;;;15.90;99.90;;;;;;5005928;28;20512;-66
2022/07/30 00:14:08;;;;;;;5.78;4.07;;;15.80;99.90;;;;;;5000956;28;20351;-63
2022/07/30 00:16:35;;;;;;;5.82;3.83;;;15.80;99.90;;;;;;5002633;28;20112;-63
2022/07/30 00:19:01;;;;;;;6.70;4.43;;;15.80;99.90;;;;;;5010346;28;20045;-62
2022/07/30 00:21:27;;;;;;;7.72;4.25;;;15.70;99.90;;;;;;5001638;28;20126;-62
2022/07/30 00:23:52;;;;;;;6.30;4.30;;;15.60;99.90;;;;;;5010591;28;20121;-62
2022/07/30 00:26:18;;;;;;;5.70;4.10;;;15.60;99.90;;;;;;5009833;28;20041;-63
2022/07/30 00:28:44;;;;;;;6.97;4.43;;;15.60;99.90;;;;;;5008161;28;20046;-63
2022/07/30 00:31:09;;;;;;;6.60;4.40;;;15.50;99.90;;;;;;5008929;28;20100;-65
2022/07/30 00:33:35;;;;;;;7.55;3.92;;;15.50;99.90;;;;;;5010503;28;20052;-71
2022/07/30 00:36:01;;;;;;;6.70;3.67;;;15.50;99.90;;;;;;5001813;28;20117;-62
2022/07/30 00:38:26;;;;;;;6.43;4.07;;;15.40;99.90;;;;;;5006870;28;20037;-66
2022/07/30 00:40:52;;;;;;;7.53;4.32;;;15.40;99.90;;;;;;5009583;28;20030;-63
2022/07/30 00:43:18;;;;;;;5.40;3.80;;;15.50;99.90;;;;;;5010410;28;20049;-63
2022/07/30 00:45:44;;;;;;;6.13;4.15;;;15.40;99.90;;;;;;5008960;28;20050;-63
2022/07/30 00:48:11;;;;;;;6.13;4.38;;;15.40;99.90;;;;;;5010451;28;20787;-65
2022/07/30 00:50:37;;;;;;;8.50;4.57;;;15.40;99.90;;;;;;5005843;28;20030;-63
2022/07/30 00:53:04;;;;;;;7.75;5.28;;;15.30;99.90;;;;;;5000792;28;20427;-63
2022/07/30 00:55:30;;;;;;;8.48;5.38;;;15.30;99.90;;;;;;5004252;28;20277;-62
2022/07/30 00:57:55;;;;;;;9.85;5.78;;;15.40;99.90;;;;;;5004860;28;20073;-63
2022/07/30 01:00:21;;;;;;;10.98;6.25;;;15.40;99.90;;;;;;5010336;28;20044;-63
2022/07/30 01:02:47;;;;;;;9.25;5.97;;;15.30;99.90;;;;;;5008877;28;20042;-63
2022/07/30 01:05:13;;;;;;;7.43;5.68;;;15.30;99.90;;;;;;5008674;28;20061;-63
2022/07/30 01:07:39;;;;;;;10.43;6.50;;;15.30;99.90;;;;;;5008732;28;20504;-63
2022/07/30 01:10:08;;;;;;;8.15;6.32;;;15.40;99.90;;;;;;5008259;28;20037;-64
2022/07/30 01:12:34;;;;;;;7.82;6.18;;;15.40;99.90;;;;;;5008711;28;20045;-62
2022/07/30 01:15:03;;;;;;;10.20;6.10;;;15.40;99.90;;;;;;5009743;28;20034;-62
2022/07/30 01:17:29;;;;;;;10.15;6.07;;;15.40;99.90;;;;;;5002831;28;20582;-63
2022/07/30 01:20:05;;;;;;;9.38;6.30;;;15.40;99.90;;;;;;5008917;28;20125;-66
2022/07/30 01:22:47;;;;;;;10.05;5.97;;;15.30;99.90;;;;;;5021396;28;20045;-66
2022/07/30 01:25:32;;;;;;;7.85;6.82;;;15.30;99.90;;;;;;5008045;28;20363;-62
2022/07/30 01:28:07;;;;;;;11.98;6.78;;;15.30;99.90;;;;;;5005045;28;20077;-62
2022/07/30 01:30:37;;;;;;;7.22;5.75;;;15.30;99.90;;;;;;5002189;28;20037;-65
2022/07/30 01:33:04;;;;;;;9.23;6.00;;;15.20;99.90;;;;;;5001717;28;20513;-62
2022/07/30 01:35:31;;;;;;;9.18;5.80;;;15.10;99.90;;;;;;5002041;28;20038;-62
2022/07/30 01:37:59;;;;;;;8.32;5.68;;;15.10;99.90;;;;;;5008304;28;20038;-62
2022/07/30 01:40:27;;;;;;;7.13;4.93;;;15.10;99.90;;;;;;4986697;28;20045;-68
2022/07/30 01:42:56;;;;;;;10.00;5.03;;;15.10;99.90;;;;;;5005787;28;20092;-62
2022/07/30 01:45:27;;;;;;;5.70;4.05;;;15.10;99.90;;;;;;5009505;28;20041;-63
2022/07/30 01:47:54;;;;;;;8.48;4.35;;;15.10;99.90;;;;;;5009629;28;20048;-62
2022/07/30 01:50:22;;;;;;;9.65;5.53;;;15.10;99.90;;;;;;5009638;28;20045;-63
2022/07/30 01:52:51;;;;;;;11.00;7.10;;;15.00;99.90;;;;;;5012045;28;20056;-67
2022/07/30 01:55:27;;;;;;;11.40;8.00;;;15.30;99.90;;;;;;5005831;28;20042;-63
2022/07/30 01:57:54;;;;;;;9.63;8.15;;;15.10;99.90;;;;;;5011536;28;20052;-62
2022/07/30 02:00:23;;;;;;;9.80;8.43;;;15.20;99.90;;;;;;5012762;28;20030;-63
2022/07/30 02:02:49;;;;;;;9.35;8.40;;;15.20;99.90;;;;;;5011666;28;20054;-63
2022/07/30 02:05:15;;;;;;;9.32;8.32;;;15.20;99.90;;;;;;5011985;28;20144;-64
2022/07/30 02:07:48;;;;;;;9.07;8.18;;;15.20;99.90;;;;;;5011769;28;20577;-64
2022/07/30 02:10:20;;;;;;;8.73;7.80;;;15.20;99.90;;;;;;5010095;28;20118;-62
2022/07/30 02:12:48;;;;;;;8.75;7.85;;;15.20;99.90;;;;;;5008636;28;20524;-63
2022/07/30 02:15:25;;;;;;;7.95;7.15;;;15.20;99.90;;;;;;5012304;28;20395;-65
2022/07/30 02:18:13;;;;;;;8.50;7.53;;;15.20;99.90;;;;;;5010621;28;20042;-64
2022/07/30 02:20:53;;;;;;;8.00;7.20;;;15.20;99.90;;;;;;5006986;28;20116;-63
2022/07/30 02:23:19;;;;;;;8.38;7.07;;;15.10;99.90;;;;;;5007224;28;20059;-66
2022/07/30 02:25:49;;;;;;;8.85;7.68;;;15.20;99.90;;;;;;5007361;28;20050;-63
2022/07/30 02:28:17;;;;;;;7.78;6.97;;;15.10;99.90;;;;;;5010834;28;20116;-66
2022/07/30 02:30:54;;;;;;;8.55;7.22;;;15.10;99.90;;;;;;5012402;28;20116;-65
2022/07/30 02:33:28;;;;;;;7.95;7.15;;;15.20;99.90;;;;;;5010854;28;20053;-63
2022/07/30 02:35:54;;;;;;;8.45;7.50;;;15.20;99.90;;;;;;5010260;28;20046;-64
2022/07/30 02:38:21;;;;;;;8.00;7.00;;;15.30;99.90;;;;;;5011937;28;20277;-63
2022/07/30 02:40:48;;;;;;;8.30;7.13;;;15.30;99.90;;;;;;5011457;28;20042;-63
2022/07/30 02:43:19;;;;;;;9.43;7.72;;;15.30;99.90;;;;;;5011205;28;20430;-63
2022/07/30 02:45:46;;;;;;;8.07;6.88;;;15.30;99.90;;;;;;5010205;28;20054;-69
2022/07/30 02:48:14;;;;;;;8.93;7.55;;;15.40;99.90;;;;;;5009442;28;20052;-63
2022/07/30 02:50:40;;;;;;;7.53;6.65;;;15.40;99.90;;;;;;5008559;28;20042;-63
2022/07/30 02:53:09;;;;;;;9.40;7.78;;;15.40;99.90;;;;;;5010720;28;20497;-64
2022/07/30 02:55:37;;;;;;;9.80;6.95;;;15.40;99.90;;;;;;5007112;28;20065;-67
2022/07/30 02:58:04;;;;;;;8.50;6.30;;;15.40;99.90;;;;;;5001753;28;20048;-62
2022/07/30 03:00:32;;;;;;;7.68;6.30;;;15.50;99.90;;;;;;5006469;28;20373;-63
2022/07/30 03:02:58;;;;;;;8.40;6.55;;;15.50;99.90;;;;;;5010891;28;20038;-66
2022/07/30 03:05:25;;;;;;;8.65;7.05;;;15.50;99.90;;;;;;5010276;28;20037;-64
2022/07/30 03:07:53;;;;;;;7.57;6.43;;;15.50;99.90;;;;;;5011290;28;20133;-63
2022/07/30 03:10:19;;;;;;;8.00;6.45;;;15.60;99.90;;;;;;5006014;28;20041;-63
2022/07/30 03:12:45;;;;;;;7.55;6.43;;;15.60;99.90;;;;;;5002275;28;20043;-63
2022/07/30 03:15:12;;;;;;;7.60;6.55;;;15.60;99.90;;;;;;5011321;28;20076;-63
2022/07/30 03:17:42;;;;;;;7.93;6.57;;;15.60;99.90;;;;;;5009762;28;20516;-67
2022/07/30 03:20:11;;;;;;;8.20;6.50;;;15.60;99.90;;;;;;5007148;28;20480;-67
2022/07/30 03:22:42;;;;;;;8.85;7.25;;;15.70;99.90;;;;;;5026915;28;20042;-63
2022/07/30 03:25:09;;;;;;;9.27;7.13;;;15.70;99.90;;;;;;5007920;28;20107;-64
2022/07/30 03:27:37;;;;;;;9.30;7.18;;;15.70;99.90;;;;;;5003088;28;20473;-63
2022/07/30 03:30:04;;;;;;;7.97;6.70;;;15.70;99.90;;;;;;5004435;28;20049;-65
2022/07/30 03:32:30;;;;;;;8.80;7.68;;;15.70;99.90;;;;;;5006391;28;20030;-66
2022/07/30 03:34:58;;;;;;;8.55;7.40;;;15.80;99.90;;;;;;5010365;28;20046;-67
2022/07/30 03:37:25;;;;;;;8.20;6.80;;;15.80;99.90;;;;;;5001670;28;20038;-70
2022/07/30 03:39:52;;;;;;;10.05;7.63;;;15.80;99.90;;;;;;5010903;28;20144;-64
2022/07/30 03:42:20;;;;;;;8.40;7.32;;;15.80;99.90;;;;;;5011015;28;20505;-64
2022/07/30 03:44:46;;;;;;;9.75;8.15;;;15.80;99.90;;;;;;5009670;28;20117;-64
2022/07/30 03:47:13;;;;;;;9.25;7.43;;;15.80;99.90;;;;;;5003255;28;20497;-63
2022/07/30 03:49:39;;;;;;;11.05;8.55;;;15.80;99.90;;;;;;5009929;28;20057;-67
2022/07/30 03:52:06;;;;;;;10.27;7.72;;;15.90;99.90;;;;;;5010900;28;20481;-66
2022/07/30 03:54:33;;;;;;;8.52;7.22;;;15.90;99.90;;;;;;5011350;28;20030;-63
2022/07/30 03:57:00;;;;;;;8.68;7.22;;;15.80;99.90;;;;;;5010539;28;20041;-63
2022/07/30 03:59:27;;;;;;;8.85;7.43;;;15.90;99.90;;;;;;5000800;28;20070;-64
2022/07/30 04:01:52;;;;;;;9.95;8.40;;;15.90;99.90;;;;;;5009821;28;20104;-64
2022/07/30 04:04:18;;;;;;;9.32;7.47;;;15.90;99.90;;;;;;5010744;28;20033;-63
2022/07/30 04:06:44;;;;;;;9.38;7.70;;;15.90;99.90;;;;;;5009744;28;20104;-67
2022/07/30 04:09:11;;;;;;;8.95;7.70;;;15.90;99.90;;;;;;5005761;28;20034;-63
2022/07/30 04:11:37;;;;;;;9.23;7.57;;;16.00;99.90;;;;;;5004095;28;20077;-62
2022/07/30 04:14:03;;;;;;;9.10;7.85;;;16.00;99.90;;;;;;5009354;28;20084;-66
2022/07/30 04:16:50;;;;;;;9.35;7.72;;;15.90;99.90;;;;;;5006244;28;20038;-66
2022/07/30 04:19:28;;;;;;;8.45;7.55;;;16.00;99.90;;;;;;5008219;28;20046;-63
2022/07/30 04:21:55;;;;;;;10.45;7.82;;;16.00;99.90;;;;;;4999607;28;20057;-66
2022/07/30 04:24:22;;;;;;;8.82;7.22;;;16.00;99.90;;;;;;5010225;28;20042;-63
2022/07/30 04:26:51;;;;;;;9.20;7.63;;;16.00;99.90;;;;;;5008056;28;20411;-62
2022/07/30 04:29:18;;;;;;;9.90;7.53;;;16.00;99.90;;;;;;4993310;28;20045;-63
2022/07/30 04:31:44;;;;;;;9.68;7.70;;;16.00;99.90;;;;;;5007947;28;20041;-62
2022/07/30 04:34:13;;;;;;;9.15;7.70;;;16.00;99.90;;;;;;5001000;28;20089;-63
2022/07/30 04:36:40;;;;;;;9.38;8.02;;;16.10;99.90;;;;;;5005813;28;20045;-63
2022/07/30 04:39:06;;;;;;;8.88;7.65;;;16.00;99.90;;;;;;5008549;28;20046;-65
2022/07/30 04:41:32;;;;;;;9.18;7.55;;;16.10;99.90;;;;;;5009971;28;20523;-69
2022/07/30 04:43:57;;;;;;;9.43;7.70;;;16.10;99.90;;;;;;5007961;28;20524;-63
2022/07/30 04:46:26;;;;;;;8.85;7.60;;;16.10;99.90;;;;;;5010167;28;20392;-63
2022/07/30 04:48:52;;;;;;;9.07;7.22;;;16.10;99.90;;;;;;5007982;28;20034;-63
2022/07/30 04:51:24;;;;;;;8.95;7.65;;;16.10;99.90;;;;;;5009873;28;20504;-63
2022/07/30 04:53:51;;;;;;;9.18;7.57;;;16.10;99.90;;;;;;5009988;28;20404;-63
2022/07/30 04:56:19;;;;;;;8.65;6.95;;;16.20;99.90;;;;;;5010209;28;20045;-64
2022/07/30 04:58:45;;;;;;;9.43;8.43;;;16.20;99.90;;;;;;5005709;28;20046;-66
2022/07/30 05:01:14;;;;;;;10.90;8.68;;;16.20;99.90;;;;;;5009210;28;20045;-68
2022/07/30 05:03:42;;;;;;;9.20;7.72;;;16.30;99.90;;;;;;5008920;28;20615;-63
2022/07/30 05:06:10;;;;;;;9.70;7.63;;;16.30;99.90;;;;;;5009020;28;20049;-63
2022/07/30 05:08:36;;;;;;;8.50;7.60;;;16.30;99.90;;;;;;5007282;28;20057;-64
2022/07/30 05:11:02;;;;;;;10.32;8.02;;;16.40;99.90;;;;;;5006804;28;20519;-63
2022/07/30 05:13:28;;;;;;;10.25;7.38;;;16.40;99.90;;;;;;5006846;28;20030;-65
2022/07/30 05:15:54;;;;;;;8.88;7.05;;;16.40;99.90;;;;;;5008431;28;20069;-64
2022/07/30 05:18:19;;;;;;;9.93;6.97;;;16.50;99.90;;;;;;5008878;28;20053;-64
2022/07/30 05:20:45;;;;;;;8.55;6.45;;;16.50;99.90;;;;;;5009883;28;20042;-68
2022/07/30 05:23:11;;;;;;;8.25;6.53;;;16.50;99.90;;;;;;5008536;28;20045;-63
2022/07/30 05:25:36;;;;;;;7.50;6.40;;;16.60;99.90;;;;;;5010561;28;20386;-63
2022/07/30 05:28:02;;;;;;;8.13;6.70;;;16.60;99.90;;;;;;5011156;28;20034;-63
2022/07/30 05:30:28;;;;;;;7.82;6.60;;;16.60;99.90;;;;;;5007975;28;20041;-64
2022/07/30 05:32:53;;;;;;;8.23;6.60;;;16.70;99.90;;;;;;5013462;28;20042;-68
2022/07/30 05:35:19;;;;;;;7.70;6.25;;;16.70;99.90;;;;;;5012703;28;20049;-66
2022/07/30 05:37:45;;;;;;;8.70;6.70;;;16.70;99.90;;;;;;5009232;28;20037;-63
2022/07/30 05:40:11;;;;;;;7.82;6.57;;;16.70;99.90;;;;;;5012226;28;20026;-63
2022/07/30 05:42:36;;;;;;;8.70;7.20;;;16.80;99.90;;;;;;5008551;28;20038;-63
2022/07/30 05:45:02;;;;;;;9.73;7.20;;;16.80;99.90;;;;;;5010075;28;20080;-63
2022/07/30 05:47:28;;;;;;;9.38;7.00;;;16.90;99.90;;;;;;5009964;28;20041;-64
2022/07/30 05:49:54;;;;;;;9.73;7.50;;;16.90;99.90;;;;;;5012614;28;20033;-69
2022/07/30 05:52:19;;;;;;;9.05;7.75;;;16.90;99.90;;;;;;5012375;28;20042;-63
2022/07/30 05:54:45;;;;;;;10.82;8.20;;;16.90;99.90;;;;;;5011412;28;20037;-63
2022/07/30 05:57:10;;;;;;;9.88;8.10;;;17.00;99.90;;;;;;5012869;28;20376;-64
2022/07/30 05:59:36;;;;;;;10.40;8.10;;;17.00;99.90;;;;;;5011134;28;20038;-69
2022/07/30 06:02:02;;;;;;;12.23;8.25;;;17.10;99.90;;;;;;5010357;28;20068;-63
2022/07/30 06:04:28;;;;;;;9.38;7.22;;;17.10;99.90;;;;;;5010514;28;20071;-63
2022/07/30 06:06:54;;;;;;;9.73;7.72;;;17.10;99.90;;;;;;5005726;28;20274;-64
2022/07/30 06:09:20;;;;;;;8.50;6.82;;;17.20;99.90;;;;;;5009613;28;20140;-63
2022/07/30 06:11:46;;;;;;;9.52;7.50;;;17.20;99.90;;;;;;5009005;28;20115;-67
2022/07/30 06:14:11;;;;;;;10.02;7.43;;;17.20;99.90;;;;;;5009715;28;20034;-63
2022/07/30 06:16:37;;;;;;;9.77;7.05;;;17.30;99.90;;;;;;5010056;28;20083;-65
2022/07/30 06:19:03;;;;;;;10.48;7.13;;;17.30;99.90;;;;;;5002283;28;20035;-66
2022/07/30 06:21:29;;;;;;;10.80;7.25;;;17.30;99.90;;;;;;5002490;28;20034;-67
2022/07/30 06:23:54;;;;;;;10.88;7.88;;;17.40;99.90;;;;;;4996259;28;20042;-63
2022/07/30 06:26:20;;;;;;;9.15;7.45;;;17.40;99.90;;;;;;5008376;28;20073;-64
2022/07/30 06:28:46;;;;;;;10.18;7.93;;;17.40;99.90;;;;;;5011480;28;20065;-63
2022/07/30 06:31:11;;;;;;;9.95;7.57;;;17.40;99.90;;;;;;5004304;28;20069;-64
2022/07/30 06:33:37;;;;;;;10.20;7.13;;;17.50;99.90;;;;;;5007747;28;20489;-69
2022/07/30 06:36:03;;;;;;;10.77;7.53;;;17.50;99.90;;;;;;5012405;28;20113;-63
2022/07/30 06:38:29;;;;;;;10.35;7.22;;;17.60;99.90;;;;;;5010562;28;20092;-63
2022/07/30 06:40:55;;;;;;;12.10;8.43;;;17.60;99.90;;;;;;5009236;28;20037;-63
2022/07/30 06:43:20;;;;;;;11.45;7.95;;;17.70;99.90;;;;;;5004344;28;20574;-64
2022/07/30 06:45:46;;;;;;;12.18;8.43;;;17.70;99.90;;;;;;5008786;28;20046;-64
2022/07/30 06:48:12;;;;;;;9.15;7.70;;;17.80;99.90;;;;;;5006914;28;20045;-66
2022/07/30 06:50:38;;;;;;;12.55;8.63;;;17.90;99.90;;;;;;4998907;28;20050;-69
2022/07/30 06:53:03;;;;;;;10.40;8.20;;;17.90;99.90;;;;;;5010302;28;20042;-64
2022/07/30 06:55:29;;;;;;;10.68;7.68;;;17.90;99.90;;;;;;4998991;28;20042;-63
2022/07/30 06:57:54;;;;;;;12.15;8.13;;;18.00;99.90;;;;;;5003716;28;20527;-64
2022/07/30 07:00:20;;;;;;;11.63;7.95;;;18.10;99.90;;;;;;5011516;28;20080;-65
2022/07/30 07:02:46;;;;;;;11.90;7.32;;;18.10;99.90;;;;;;5010091;28;20088;-70
2022/07/30 07:05:12;;;;;;;11.82;7.75;;;18.20;99.90;;;;;;5010034;28;20038;-64
2022/07/30 07:07:39;;;;;;;14.40;8.07;;;18.20;99.90;;;;;;5004723;28;20037;-63
2022/07/30 07:10:05;;;;;;;15.35;9.02;;;18.20;99.90;;;;;;4994563;28;20139;-66
2022/07/30 07:12:31;;;;;;;14.38;8.13;;;18.30;99.90;;;;;;5009655;28;20049;-64
2022/07/30 07:14:57;;;;;;;11.55;8.23;;;18.30;99.90;;;;;;5008058;28;20041;-64
2022/07/30 07:17:22;;;;;;;12.30;8.05;;;18.40;99.90;;;;;;5004858;28;20034;-70
2022/07/30 07:19:48;;;;;;;10.95;8.23;;;18.40;99.90;;;;;;5005323;28;20113;-64
2022/07/30 07:22:13;;;;;;;11.10;7.50;;;18.40;99.90;;;;;;5011673;28;20124;-64
2022/07/30 07:24:39;;;;;;;13.35;7.72;;;18.40;99.90;;;;;;5010009;28;20038;-64
2022/07/30 07:27:06;;;;;;;11.43;8.07;;;18.50;99.90;;;;;;5004339;28;20038;-67
2022/07/30 07:29:32;;;;;;;13.52;7.18;;;18.50;99.90;;;;;;5010834;28;20038;-64
2022/07/30 07:31:57;;;;;;;11.48;7.25;;;18.50;99.90;;;;;;5010145;28;20082;-64
2022/07/30 07:34:23;;;;;;;14.02;6.68;;;18.50;99.90;;;;;;5007923;28;20523;-64
2022/07/30 07:36:49;;;;;;;10.75;6.55;;;18.60;99.90;;;;;;5009875;28;20504;-67
2022/07/30 07:39:14;;;;;;;10.73;7.00;;;18.60;99.90;;;;;;5011072;28;20037;-64
2022/07/30 07:41:40;;;;;;;15.50;6.43;;;18.70;99.90;;;;;;5011218;28;20081;-64
2022/07/30 07:44:06;;;;;;;12.52;6.57;;;18.80;99.90;;;;;;5009950;28;20038;-64
2022/07/30 07:46:32;;;;;;;11.32;6.22;;;18.80;99.90;;;;;;5009998;28;20042;-64
2022/07/30 07:48:58;;;;;;;12.85;6.20;;;18.80;99.90;;;;;;5009193;28;20049;-63
2022/07/30 07:51:23;;;;;;;10.13;5.47;;;18.90;99.90;;;;;;5011025;28;20033;-67
2022/07/30 07:53:49;;;;;;;10.50;5.53;;;18.90;99.90;;;;;;5009736;28;20037;-64
2022/07/30 07:56:14;;;;;;;11.15;5.53;;;18.90;99.90;;;;;;5006093;28;20077;-63
2022/07/30 07:58:40;;;;;;;8.95;5.30;;;18.90;99.90;;;;;;5010867;28;20420;-64
2022/07/30 08:01:06;;;;;;;10.45;4.60;;;19.00;99.90;;;;;;5004657;28;20388;-64
2022/07/30 08:03:32;;;;;;;9.93;4.68;;;19.00;99.90;;;;;;5009404;28;20476;-65
2022/07/30 08:05:57;;;;;;;10.45;5.38;;;19.00;99.90;;;;;;5009344;28;20508;-66
2022/07/30 08:08:23;;;;;;;9.93;4.60;;;19.00;99.90;;;;;;5010345;28;20038;-64
2022/07/30 08:10:49;;;;;;;12.35;4.75;;;19.20;99.90;;;;;;5008633;28;20401;-64
2022/07/30 08:13:15;;;;;;;10.98;4.32;;;19.20;99.90;;;;;;4999789;28;20101;-63
2022/07/30 08:15:41;;;;;;;8.98;4.20;;;19.30;99.90;;;;;;5002393;28;20087;-63
2022/07/30 08:18:07;;;;;;;6.82;4.07;;;19.30;99.90;;;;;;5008509;28;20030;-64
2022/07/30 08:20:34;;;;;;;9.68;4.30;;;19.30;99.90;;;;;;5010544;28;20503;-63
2022/07/30 08:23:00;;;;;;;7.53;4.10;;;19.30;99.90;;;;;;5010203;28;20228;-65
2022/07/30 08:25:27;;;;;;;7.15;3.85;;;19.30;99.90;;;;;;5004830;28;20380;-69
2022/07/30 08:27:52;;;;;;;8.07;4.40;;;19.40;99.90;;;;;;5009643;28;20073;-66
2022/07/30 08:30:18;;;;;;;9.65;4.45;;;19.50;99.90;;;;;;5004379;28;20462;-70
2022/07/30 08:32:44;;;;;;;8.20;3.90;;;19.60;99.90;;;;;;5003738;28;20038;-63
2022/07/30 08:35:09;;;;;;;10.88;4.28;;;19.80;99.90;;;;;;5004437;28;20474;-62
2022/07/30 08:37:36;;;;;;;8.07;3.95;;;19.90;99.90;;;;;;5010063;28;20072;-63
2022/07/30 08:40:03;;;;;;;7.85;3.85;;;20.20;99.90;;;;;;5009094;28;20034;-63
2022/07/30 08:42:32;;;;;;;8.85;4.03;;;20.30;99.90;;;;;;5010315;28;20037;-64
2022/07/30 08:44:58;;;;;;;8.13;3.80;;;20.50;99.90;;;;;;5008625;28;20045;-63
2022/07/30 08:47:29;;;;;;;10.95;4.53;;;20.70;99.90;;;;;;5006735;28;20038;-63
2022/07/30 08:50:00;;;;;;;9.25;4.32;;;21.10;99.90;;;;;;5010231;28;20114;-64
2022/07/30 08:52:29;;;;;;;6.97;4.03;;;21.30;99.90;;;;;;5002094;28;20096;-63
2022/07/30 08:54:55;;;;;;;6.10;3.67;;;21.60;99.90;;;;;;5002248;28;20099;-66
2022/07/30 08:57:21;;;;;;;7.90;3.90;;;21.60;99.90;;;;;;5009542;28;20034;-69
2022/07/30 08:59:47;;;;;;;8.95;3.92;;;21.70;99.90;;;;;;5009380;28;20041;-66
2022/07/30 09:02:13;;;;;;;7.55;3.65;;;21.80;99.90;;;;;;5005132;28;20038;-67
2022/07/30 09:04:39;;;;;;;9.70;3.60;;;22.00;99.90;;;;;;5013069;28;20041;-63
2022/07/30 09:07:04;;;;;;;9.52;4.47;;;22.30;99.90;;;;;;5007182;28;20076;-63
2022/07/30 09:09:30;;;;;;;10.68;4.43;;;22.50;99.90;;;;;;5013891;28;20404;-63
2022/07/30 09:11:55;;;;;;;6.50;3.83;;;22.50;99.90;;;;;;5014037;28;20033;-65
2022/07/30 09:14:21;;;;;;;6.18;3.20;;;22.80;99.90;;;;;;5012520;28;20519;-63
2022/07/30 09:16:56;;;;;;;7.70;3.40;;;23.00;99.90;;;;;;5012772;28;20574;-63
2022/07/30 09:19:22;;;;;;;5.43;3.35;;;23.30;99.90;;;;;;5012071;28;20038;-64
2022/07/30 09:21:58;;;;;;;7.03;3.55;;;23.50;99.90;;;;;;5014137;28;20596;-66
2022/07/30 09:24:24;;;;;;;8.23;3.70;;;23.60;99.90;;;;;;5013429;28;20038;-66
2022/07/30 09:26:57;;;;;;;6.93;3.67;;;23.50;99.90;;;;;;5010796;28;20099;-64
2022/07/30 09:29:28;;;;;;;8.10;4.05;;;23.60;99.90;;;;;;5002209;28;20085;-64
2022/07/30 09:32:02;;;;;;;7.65;3.60;;;23.60;99.90;;;;;;5001083;28;20117;-64
2022/07/30 09:34:33;;;;;;;8.73;3.38;;;23.70;99.90;;;;;;5005922;28;20042;-63
2022/07/30 09:37:02;;;;;;;6.70;3.33;;;23.80;99.90;;;;;;5012147;28;20088;-70
2022/07/30 09:39:39;;;;;;;7.60;3.72;;;24.00;99.90;;;;;;5013438;28;20037;-63
2022/07/30 09:42:21;;;;;;;5.75;3.00;;;23.90;99.00;;;;;;5013912;28;20049;-64
2022/07/30 09:44:47;;;;;;;6.43;2.88;;;24.00;99.10;;;;;;5012378;28;20122;-66
2022/07/30 09:47:32;;;;;;;5.32;3.00;;;24.20;99.90;;;;;;5011925;28;20484;-66
2022/07/30 09:50:10;;;;;;;7.75;3.00;;;24.20;98.10;;;;;;5013271;28;20038;-64
2022/07/30 09:52:37;;;;;;;5.68;3.08;;;24.20;98.50;;;;;;5013534;28;20042;-64
2022/07/30 09:55:03;;;;;;;7.18;3.72;;;24.30;99.10;;;;;;5013009;28;20511;-67
2022/07/30 09:57:29;;;;;;;10.50;2.75;;;24.50;98.90;;;;;;5005707;28;20104;-70
2022/07/30 10:00:14;;;;;;;9.85;3.83;;;24.70;98.30;;;;;;5007803;28;20496;-64
2022/07/30 10:02:40;;;;;;;7.55;3.58;;;24.70;97.40;;;;;;5020696;28;20052;-63
2022/07/30 10:05:11;;;;;;;6.85;3.30;;;24.80;97.70;;;;;;5011686;28;20038;-64
2022/07/30 10:07:37;;;;;;;6.82;3.85;;;25.10;97.00;;;;;;5006977;28;20069;-69
2022/07/30 10:10:03;;;;;;;7.63;3.80;;;25.00;96.60;;;;;;5012721;28;20057;-69
2022/07/30 10:12:31;;;;;;;7.90;3.60;;;25.00;96.50;;;;;;5010820;28;20069;-69
2022/07/30 10:15:00;;;;;;;10.40;4.18;;;25.20;96.20;;;;;;5012893;28;20034;-68
2022/07/30 10:17:26;;;;;;;8.50;3.55;;;25.20;95.90;;;;;;5004231;28;20037;-64
2022/07/30 10:19:53;;;;;;;9.25;3.45;;;25.30;95.70;;;;;;5012741;28;20048;-64
2022/07/30 10:22:19;;;;;;;6.63;3.30;;;25.40;95.50;;;;;;5012432;28;20046;-64
2022/07/30 10:24:46;;;;;;;5.60;3.38;;;25.50;95.90;;;;;;5012360;28;20042;-64
2022/07/30 10:27:12;;;;;;;6.38;3.38;;;25.50;95.30;;;;;;5011277;28;20647;-65
2022/07/30 10:29:39;;;;;;;6.63;2.75;;;25.30;95.10;;;;;;5008059;28;20193;-65
2022/07/30 10:32:05;;;;;;;6.35;2.63;;;25.30;95.10;;;;;;5011028;28;20492;-65
2022/07/30 10:34:31;;;;;;;7.72;2.53;;;25.60;95.10;;;;;;5012168;28;20044;-65
2022/07/30 10:37:02;;;;;;;6.20;2.65;;;25.60;94.30;;;;;;5011232;28;20370;-65
2022/07/30 10:39:43;;;;;;;5.55;2.42;;;25.60;93.90;;;;;;5010413;28;20116;-65
2022/07/30 10:42:46;;;;;;;5.75;2.70;;;25.50;92.90;;;;;;5008259;28;20042;-65
2022/07/30 10:45:46;;;;;;;7.50;3.00;;;25.20;92.30;;;;;;5010503;28;20041;-65
2022/07/30 10:48:12;;;;;;;7.32;2.83;;;25.00;92.50;;;;;;4974629;28;20089;-64
2022/07/30 10:50:55;;;;;;;6.15;2.58;;;24.90;93.70;;;;;;5007301;28;20265;-65
2022/07/30 10:53:47;;;;;;;4.32;2.40;;;24.90;93.50;;;;;;5011701;28;20046;-65
2022/07/30 10:56:18;;;;;;;4.60;2.35;;;25.00;93.60;;;;;;5010564;28;20476;-66
2022/07/30 10:59:05;;;;;;;6.47;2.70;;;25.00;93.60;;;;;;5005655;28;20038;-65
2022/07/30 11:01:51;;;;;;;7.07;2.45;;;25.00;93.40;;;;;;5005007;28;20507;-67
2022/07/30 11:04:24;;;;;;;6.13;2.50;;;25.30;93.60;;;;;;5006780;28;20042;-65
2022/07/30 11:06:52;;;;;;;4.75;2.17;;;25.60;94.20;;;;;;5012081;28;20050;-67
2022/07/30 11:09:38;;;;;;;5.45;2.17;;;26.00;93.70;;;;;;5003638;28;20100;-67
2022/07/30 11:12:05;;;;;;;5.88;2.13;;;26.40;92.30;;;;;;5009118;28;20501;-67
2022/07/30 11:14:46;;;;;;;6.20;2.55;;;26.70;92.70;;;;;;5004813;28;20038;-67
2022/07/30 11:17:14;;;;;;;3.85;2.15;;;27.00;91.10;;;;;;5009983;28;20054;-67
2022/07/30 11:20:02;;;;;;;10.77;2.00;;;27.10;91.60;;;;;;5011711;28;20046;-67
2022/07/30 11:22:39;;;;;;;5.18;2.22;;;27.10;90.00;;;;;;5010061;28;20053;-67
2022/07/30 11:25:29;;;;;;;4.70;2.05;;;27.10;90.40;;;;;;5010883;28;20038;-67
2022/07/30 11:27:56;;;;;;;6.70;2.40;;;27.30;90.20;;;;;;5005779;28;20037;-66
2022/07/30 11:30:21;;;;;;;3.75;2.00;;;27.40;89.10;;;;;;5003031;28;20065;-67
2022/07/30 11:32:53;;;;;;;5.22;2.33;;;27.50;88.70;;;;;;5008926;28;20034;-67
2022/07/30 11:35:20;;;;;;;3.60;1.80;;;27.70;87.90;;;;;;4996074;28;20053;-67
2022/07/30 11:38:01;;;;;;;3.15;1.80;;;28.00;87.90;;;;;;5009508;28;20049;-67
2022/07/30 11:40:47;;;;;;;5.10;2.28;;;28.10;83.80;;;;;;5001367;28;20049;-67
2022/07/30 11:43:17;;;;;;;3.17;1.80;;;28.10;83.10;;;;;;5010550;28;20050;-67
2022/07/30 11:45:45;;;;;;;3.42;1.90;;;28.00;82.80;;;;;;5010133;28;20613;-67
2022/07/30 11:48:13;;;;;;;4.10;2.20;;;28.00;82.50;;;;;;5009092;28;20057;-67
2022/07/30 11:50:40;;;;;;;5.40;2.22;;;28.00;81.10;;;;;;5005423;28;20046;-67
2022/07/30 11:53:08;;;;;;;3.70;2.00;;;27.90;80.60;;;;;;5010772;28;20037;-65
2022/07/30 11:55:35;;;;;;;6.35;2.38;;;27.90;79.20;;;;;;5004856;28;20410;-67
2022/07/30 11:58:04;;;;;;;5.22;2.25;;;28.00;78.80;;;;;;5006067;28;20046;-67
2022/07/30 12:00:46;;;;;;;4.38;1.92;;;27.90;77.60;;;;;;5009556;28;20042;-65
2022/07/30 12:03:17;;;;;;;4.65;2.22;;;27.70;75.90;;;;;;5010636;28;20068;-65
2022/07/30 12:05:43;;;;;;;5.13;2.30;;;27.70;76.70;;;;;;5007190;28;20504;-67
2022/07/30 12:08:11;;;;;;;5.35;1.95;;;27.60;77.30;;;;;;5008790;28;20129;-67
2022/07/30 12:10:40;;;;;;;3.20;2.28;;;27.70;76.10;;;;;;5007729;28;20037;-67
2022/07/30 12:13:14;;;;;;;3.95;2.20;;;27.60;75.60;;;;;;5010478;28;20045;-67
2022/07/30 12:15:43;;;;;;;4.55;1.98;;;27.50;71.80;;;;;;5010234;28;20037;-67
2022/07/30 12:18:12;;;;;;;7.07;2.63;;;27.50;74.20;;;;;;5010301;28;20044;-65
2022/07/30 12:20:41;;;;;;;4.55;2.08;;;27.50;72.90;;;;;;5010384;28;20033;-67
2022/07/30 12:23:11;;;;;;;4.10;1.85;;;27.40;72.00;;;;;;5009564;28;20045;-66
2022/07/30 12:25:41;;;;;;;4.40;2.10;;;27.30;70.30;;;;;;5007801;28;20041;-65
2022/07/30 12:28:09;;;;;;;3.38;1.77;;;27.20;71.70;;;;;;5001401;28;20104;-66
2022/07/30 12:30:38;;;;;;;3.13;2.10;;;27.20;70.60;;;;;;5010576;28;20042;-65
2022/07/30 12:33:05;;;;;;;4.03;1.80;;;27.10;70.90;;;;;;4992220;28;20042;-67
2022/07/30 12:35:57;;;;;;;3.53;1.60;;;26.90;70.80;;;;;;5010746;28;20391;-67
2022/07/30 12:38:24;;;;;;;4.30;2.10;;;26.90;72.10;;;;;;5009673;28;20037;-67
2022/07/30 12:40:57;;;;;;;3.17;1.60;;;27.00;73.10;;;;;;5006239;28;20038;-67
2022/07/30 12:43:46;;;;;;;1.90;1.70;;;27.20;73.00;;;;;;5008970;28;20045;-67
2022/07/30 12:46:21;;;;;;;3.42;1.73;;;27.30;70.60;;;;;;5009698;28;20037;-67
2022/07/30 12:49:03;;;;;;;5.13;1.70;;;27.20;69.80;;;;;;5009026;28;20046;-67
2022/07/30 12:51:34;;;;;;;3.22;1.80;;;26.90;68.10;;;;;;5002943;28;20591;-64
2022/07/30 12:54:12;;;;;;;6.97;2.17;;;26.80;69.60;;;;;;5008174;28;20041;-64